Time;durP1;ratioP1;P1;durP2;ratioP2;P2;SDS_P1;SDS_P2;PMS_P1;PMS_P2;Temp;Humidity;BMP_temperature;BMP_pressure;BME280_temperature;BME280_humidity;BME280_pressure;Samples;Min_cycle;Max_cycle;Signal;HPM_P1;HPM_P2
2021/04/05 00:00:31;;;;;;;8.68;4.45;;;8.10;56.30;;;;;;5098591;28;20071;-77
2021/04/05 00:02:59;;;;;;;8.63;4.55;;;7.90;56.70;;;;;;5109193;28;20397;-76
2021/04/05 00:05:30;;;;;;;9.60;4.70;;;8.00;57.10;;;;;;5094981;28;20455;-76
2021/04/05 00:07:56;;;;;;;8.40;3.85;;;7.90;57.20;;;;;;5109238;28;20185;-77
2021/04/05 00:10:27;;;;;;;8.38;4.13;;;7.80;57.50;;;;;;5094033;28;20071;-77
2021/04/05 00:12:57;;;;;;;8.65;4.22;;;7.90;57.80;;;;;;5107917;28;20082;-77
2021/04/05 00:15:24;;;;;;;7.97;4.10;;;7.80;57.60;;;;;;5112589;28;20488;-79
2021/04/05 00:17:51;;;;;;;7.97;3.95;;;7.90;57.90;;;;;;5107592;28;20048;-76
2021/04/05 00:20:24;;;;;;;8.27;4.57;;;7.90;57.60;;;;;;5120834;28;20458;-76
2021/04/05 00:22:51;;;;;;;10.88;4.90;;;7.90;57.50;;;;;;5101150;28;20067;-78
2021/04/05 00:25:18;;;;;;;7.90;4.18;;;7.90;57.90;;;;;;5109561;28;20123;-77
2021/04/05 00:27:45;;;;;;;8.30;4.03;;;7.80;57.80;;;;;;5101595;28;20090;-77
2021/04/05 00:30:18;;;;;;;8.27;4.40;;;7.80;57.90;;;;;;5106633;28;20130;-78
2021/04/05 00:32:45;;;;;;;7.38;4.35;;;7.80;58.20;;;;;;5099539;28;20067;-77
2021/04/05 00:35:13;;;;;;;9.45;4.15;;;7.80;58.80;;;;;;5104064;28;20075;-79
2021/04/05 00:37:41;;;;;;;8.75;3.90;;;7.80;58.60;;;;;;5095426;28;20083;-77
2021/04/05 00:40:10;;;;;;;8.18;3.90;;;7.80;58.50;;;;;;5109462;28;20153;-78
2021/04/05 00:42:37;;;;;;;8.55;4.10;;;7.80;58.70;;;;;;5095368;28;20079;-78
2021/04/05 00:45:08;;;;;;;7.90;4.00;;;7.80;58.60;;;;;;5102126;28;20131;-78
2021/04/05 00:47:36;;;;;;;9.48;4.15;;;7.80;59.00;;;;;;5111141;28;20075;-78
2021/04/05 00:50:07;;;;;;;7.30;4.20;;;7.70;58.60;;;;;;5096584;28;20079;-78
2021/04/05 00:52:34;;;;;;;9.65;3.90;;;7.80;58.70;;;;;;5098045;28;20464;-77
2021/04/05 00:55:02;;;;;;;9.70;4.10;;;7.70;58.50;;;;;;5105154;28;20473;-78
2021/04/05 00:57:29;;;;;;;7.20;4.15;;;7.80;58.20;;;;;;5104881;28;20044;-76
2021/04/05 00:59:55;;;;;;;9.13;4.57;;;7.80;58.20;;;;;;5097739;28;20094;-77
2021/04/05 01:02:22;;;;;;;7.38;4.22;;;7.80;58.60;;;;;;5108508;28;20075;-77
2021/04/05 01:04:48;;;;;;;8.55;4.07;;;7.70;58.70;;;;;;5097372;28;20086;-76
2021/04/05 01:07:15;;;;;;;7.43;4.28;;;7.60;58.90;;;;;;5110403;28;20138;-77
2021/04/05 01:09:44;;;;;;;8.40;3.92;;;7.60;58.90;;;;;;5113436;28;20103;-80
2021/04/05 01:12:12;;;;;;;9.40;4.18;;;7.50;59.20;;;;;;5096623;28;20058;-78
2021/04/05 01:14:38;;;;;;;9.02;4.30;;;7.50;59.50;;;;;;5108270;28;20131;-78
2021/04/05 01:17:05;;;;;;;9.10;4.63;;;7.40;59.70;;;;;;5100577;28;20079;-77
2021/04/05 01:19:32;;;;;;;7.47;4.20;;;7.40;59.80;;;;;;5107630;28;20071;-78
2021/04/05 01:21:59;;;;;;;10.52;4.80;;;7.40;59.80;;;;;;5096624;28;20086;-78
2021/04/05 01:24:27;;;;;;;9.05;4.47;;;7.30;60.00;;;;;;5106175;28;20043;-79
2021/04/05 01:26:53;;;;;;;8.55;4.60;;;7.30;60.10;;;;;;5100773;28;20127;-77
2021/04/05 01:29:20;;;;;;;11.05;4.85;;;7.30;60.30;;;;;;5102205;28;20075;-78
2021/04/05 01:31:47;;;;;;;8.90;4.30;;;7.20;60.40;;;;;;5106976;28;20075;-79
2021/04/05 01:34:14;;;;;;;8.80;4.40;;;7.10;60.90;;;;;;5097825;28;20072;-77
2021/04/05 01:36:40;;;;;;;8.85;4.95;;;7.00;61.30;;;;;;5106769;28;20445;-79
2021/04/05 01:39:08;;;;;;;6.90;3.97;;;6.90;61.50;;;;;;5099999;28;20078;-79
2021/04/05 01:41:34;;;;;;;9.70;4.40;;;6.80;61.80;;;;;;5112290;28;20101;-78
2021/04/05 01:44:01;;;;;;;9.15;4.53;;;6.80;62.00;;;;;;5104857;28;20071;-78
2021/04/05 01:46:29;;;;;;;7.38;4.50;;;6.90;62.30;;;;;;5114788;28;20104;-78
2021/04/05 01:48:59;;;;;;;7.70;3.78;;;6.80;62.50;;;;;;5100081;28;20047;-78
2021/04/05 01:51:27;;;;;;;10.00;5.18;;;6.80;62.50;;;;;;5101078;28;20110;-77
2021/04/05 01:53:55;;;;;;;8.90;4.70;;;6.70;62.90;;;;;;5109256;28;20043;-79
2021/04/05 01:56:23;;;;;;;9.18;4.63;;;6.70;63.00;;;;;;5097298;28;20071;-78
2021/04/05 01:58:52;;;;;;;7.00;4.22;;;6.70;63.30;;;;;;5111310;28;20083;-79
2021/04/05 02:01:22;;;;;;;9.13;4.57;;;6.60;63.00;;;;;;5099271;28;20052;-77
2021/04/05 02:03:49;;;;;;;8.90;4.75;;;6.70;63.10;;;;;;5109670;28;20447;-78
2021/04/05 02:06:20;;;;;;;8.65;4.35;;;6.60;63.40;;;;;;5101621;28;20127;-78
2021/04/05 02:08:47;;;;;;;8.98;4.82;;;6.70;63.40;;;;;;5101781;28;20516;-79
2021/04/05 02:11:16;;;;;;;6.53;4.13;;;6.60;63.40;;;;;;5099388;28;20595;-79
2021/04/05 02:13:54;;;;;;;9.68;4.30;;;6.60;64.00;;;;;;5110141;28;20466;-76
2021/04/05 02:16:22;;;;;;;10.95;4.68;;;6.60;64.80;;;;;;5097081;28;20043;-78
2021/04/05 02:19:03;;;;;;;7.60;4.05;;;6.60;64.40;;;;;;5108536;28;20067;-78
2021/04/05 02:21:31;;;;;;;9.57;4.30;;;6.50;65.00;;;;;;5108540;28;20087;-79
2021/04/05 02:24:04;;;;;;;9.10;4.53;;;6.50;65.30;;;;;;5122225;28;20479;-78
2021/04/05 02:26:33;;;;;;;6.43;3.75;;;6.50;65.30;;;;;;5107220;28;20079;-78
2021/04/05 02:29:03;;;;;;;9.63;4.53;;;6.40;65.50;;;;;;5108135;28;20580;-77
2021/04/05 02:31:32;;;;;;;8.00;3.80;;;6.50;66.30;;;;;;5108022;28;20126;-77
2021/04/05 02:33:59;;;;;;;9.05;4.25;;;6.50;65.60;;;;;;5115016;28;20474;-75
2021/04/05 02:36:30;;;;;;;8.15;4.15;;;6.50;65.60;;;;;;5103906;28;20074;-76
2021/04/05 02:38:59;;;;;;;9.18;3.97;;;6.50;65.90;;;;;;5103104;28;20115;-75
2021/04/05 02:41:30;;;;;;;7.13;3.45;;;6.50;66.10;;;;;;5104054;28;20143;-77
2021/04/05 02:43:58;;;;;;;8.75;4.43;;;6.40;66.20;;;;;;5111689;28;20047;-76
2021/04/05 02:46:28;;;;;;;7.68;4.07;;;6.50;66.00;;;;;;5112088;28;20130;-77
2021/04/05 02:48:57;;;;;;;9.88;3.95;;;6.50;66.00;;;;;;5108231;28;20199;-77
2021/04/05 02:51:25;;;;;;;7.75;4.00;;;6.50;65.90;;;;;;5103215;28;20040;-78
2021/04/05 02:53:55;;;;;;;6.45;3.90;;;6.60;65.40;;;;;;5131846;28;20055;-78
2021/04/05 02:56:22;;;;;;;8.32;4.07;;;6.60;65.60;;;;;;5130539;28;20050;-78
2021/04/05 02:58:52;;;;;;;9.10;3.90;;;6.60;65.80;;;;;;5116002;28;20075;-76
2021/04/05 03:01:20;;;;;;;7.63;3.72;;;6.60;65.90;;;;;;5118042;28;20142;-77
2021/04/05 03:03:48;;;;;;;8.30;3.58;;;6.50;65.80;;;;;;5122246;28;20078;-79
2021/04/05 03:06:17;;;;;;;8.02;3.67;;;6.60;66.30;;;;;;5106342;28;20062;-78
2021/04/05 03:08:44;;;;;;;7.57;3.60;;;6.60;65.70;;;;;;5106683;28;20055;-77
2021/04/05 03:11:13;;;;;;;10.30;4.20;;;6.60;65.70;;;;;;5110441;28;20048;-77
2021/04/05 03:13:40;;;;;;;8.98;4.05;;;6.60;65.50;;;;;;5111658;28;20843;-75
2021/04/05 03:16:12;;;;;;;5.13;3.00;;;6.60;66.10;;;;;;5103578;28;20048;-77
2021/04/05 03:18:39;;;;;;;10.30;3.90;;;6.60;66.00;;;;;;5096851;28;20079;-77
2021/04/05 03:21:09;;;;;;;8.07;3.92;;;6.60;66.70;;;;;;5114784;28;20083;-78
2021/04/05 03:23:36;;;;;;;7.78;3.78;;;6.60;66.20;;;;;;5116099;28;20079;-78
2021/04/05 03:26:03;;;;;;;8.43;4.10;;;6.60;66.60;;;;;;5114894;28;20048;-78
2021/04/05 03:28:30;;;;;;;8.20;3.97;;;6.60;66.10;;;;;;5112356;28;20048;-77
2021/04/05 03:31:02;;;;;;;9.57;4.38;;;6.50;66.30;;;;;;5094421;28;20094;-76
2021/04/05 03:33:39;;;;;;;9.38;4.10;;;6.50;66.30;;;;;;5092383;28;20087;-75
2021/04/05 03:36:13;;;;;;;8.10;3.65;;;6.30;66.80;;;;;;5092415;28;20086;-76
2021/04/05 03:38:40;;;;;;;7.13;3.95;;;6.30;67.30;;;;;;5092741;28;20048;-76
2021/04/05 03:41:16;;;;;;;7.03;3.65;;;6.30;68.00;;;;;;5092900;28;20131;-77
2021/04/05 03:43:52;;;;;;;6.63;3.65;;;6.30;68.10;;;;;;5100523;28;20067;-77
2021/04/05 03:46:24;;;;;;;8.52;4.22;;;6.20;68.20;;;;;;5112261;28;20130;-76
2021/04/05 03:49:01;;;;;;;7.22;3.88;;;6.30;68.00;;;;;;5112504;28;20130;-76
2021/04/05 03:51:33;;;;;;;9.82;4.07;;;6.30;67.90;;;;;;5108571;28;20477;-76
2021/04/05 03:54:07;;;;;;;6.95;4.20;;;6.30;67.80;;;;;;5101661;28;20071;-76
2021/04/05 03:56:40;;;;;;;8.32;4.05;;;6.20;68.50;;;;;;5101404;28;20056;-77
2021/04/05 03:59:12;;;;;;;7.97;4.25;;;6.20;68.10;;;;;;5101700;28;20132;-77
2021/04/05 04:01:53;;;;;;;7.88;3.97;;;6.20;68.50;;;;;;5095086;28;20130;-76
2021/04/05 04:04:25;;;;;;;7.63;3.70;;;6.10;68.80;;;;;;5093932;28;20040;-80
2021/04/05 04:07:03;;;;;;;7.75;4.10;;;6.10;69.20;;;;;;5095505;28;20131;-75
2021/04/05 04:09:33;;;;;;;8.82;4.30;;;6.10;69.60;;;;;;5093778;28;20539;-77
2021/04/05 04:12:00;;;;;;;8.88;4.05;;;5.90;70.10;;;;;;5094033;28;20051;-77
2021/04/05 04:14:27;;;;;;;10.05;4.32;;;6.00;70.50;;;;;;5093549;28;20520;-76
2021/04/05 04:16:55;;;;;;;10.00;4.57;;;5.90;70.90;;;;;;5093910;28;20629;-76
2021/04/05 04:19:23;;;;;;;7.88;3.90;;;5.80;71.70;;;;;;5093740;28;20131;-77
2021/04/05 04:21:51;;;;;;;8.60;4.25;;;5.90;71.90;;;;;;5104032;28;20075;-76
2021/04/05 04:24:20;;;;;;;8.30;3.97;;;5.80;72.40;;;;;;5113924;28;20054;-78
2021/04/05 04:26:47;;;;;;;8.88;4.18;;;5.80;72.40;;;;;;5113855;28;20127;-77
2021/04/05 04:29:18;;;;;;;9.60;4.30;;;5.80;72.60;;;;;;5110982;28;20523;-76
2021/04/05 04:31:45;;;;;;;8.68;4.43;;;5.80;73.20;;;;;;5093528;28;20123;-78
2021/04/05 04:34:15;;;;;;;6.30;3.70;;;5.80;72.80;;;;;;5093963;28;20139;-76
2021/04/05 04:36:42;;;;;;;8.48;3.88;;;5.80;73.10;;;;;;5093766;28;20070;-76
2021/04/05 04:39:10;;;;;;;9.82;4.20;;;5.70;73.40;;;;;;5096052;28;20131;-76
2021/04/05 04:41:40;;;;;;;9.02;4.20;;;5.80;73.60;;;;;;5104500;28;20044;-76
2021/04/05 04:44:08;;;;;;;8.60;4.40;;;5.70;73.80;;;;;;5105106;28;20044;-77
2021/04/05 04:46:35;;;;;;;10.50;4.15;;;5.70;73.80;;;;;;5123768;28;20101;-77
2021/04/05 04:49:05;;;;;;;8.45;4.35;;;5.70;73.50;;;;;;5113658;28;20138;-77
2021/04/05 04:51:33;;;;;;;7.93;3.92;;;5.70;73.70;;;;;;5114056;28;20500;-76
2021/04/05 04:54:02;;;;;;;8.48;4.35;;;5.70;73.80;;;;;;5113115;28;20130;-77
2021/04/05 04:56:30;;;;;;;6.85;3.25;;;5.70;74.40;;;;;;5113535;28;20083;-75
2021/04/05 04:59:01;;;;;;;10.15;3.90;;;5.70;74.80;;;;;;5114820;28;20493;-75
2021/04/05 05:01:31;;;;;;;8.77;4.00;;;5.70;75.00;;;;;;5093884;28;20428;-76
2021/04/05 05:04:00;;;;;;;7.45;3.90;;;5.70;74.90;;;;;;5093207;28;20089;-77
2021/04/05 05:06:28;;;;;;;9.43;3.92;;;5.80;74.80;;;;;;5093098;28;20080;-77
2021/04/05 05:08:57;;;;;;;9.30;4.15;;;5.80;75.10;;;;;;5095415;28;20087;-78
2021/04/05 05:11:25;;;;;;;8.63;4.00;;;5.80;75.10;;;;;;5098164;28;20088;-79
2021/04/05 05:13:52;;;;;;;9.10;3.60;;;5.80;75.20;;;;;;5097806;28;20560;-79
2021/04/05 05:16:20;;;;;;;9.65;3.97;;;5.90;75.20;;;;;;5117664;28;20048;-77
2021/04/05 05:18:47;;;;;;;8.57;3.60;;;5.90;74.80;;;;;;5106618;28;20070;-76
2021/04/05 05:21:19;;;;;;;7.90;3.67;;;6.00;74.60;;;;;;5105386;28;20071;-78
2021/04/05 05:23:46;;;;;;;10.20;3.85;;;6.00;74.40;;;;;;5110783;28;20051;-79
2021/04/05 05:26:15;;;;;;;11.18;4.03;;;6.00;73.60;;;;;;5098555;28;20052;-79
2021/04/05 05:28:43;;;;;;;8.73;3.60;;;6.20;73.20;;;;;;5096819;28;20585;-78
2021/04/05 05:31:10;;;;;;;7.53;3.17;;;6.10;73.30;;;;;;5097000;28;20136;-78
2021/04/05 05:33:37;;;;;;;9.15;3.70;;;6.20;72.80;;;;;;5096464;28;20537;-77
2021/04/05 05:36:04;;;;;;;8.15;3.45;;;6.30;72.40;;;;;;5096516;28;20048;-79
2021/04/05 05:38:31;;;;;;;7.22;3.58;;;6.40;72.10;;;;;;5100205;28;20078;-77
2021/04/05 05:41:07;;;;;;;7.15;3.60;;;6.40;71.20;;;;;;5105295;28;20060;-77
2021/04/05 05:43:39;;;;;;;7.65;3.33;;;6.60;70.70;;;;;;5117184;28;20102;-78
2021/04/05 05:46:32;;;;;;;7.65;3.33;;;6.60;70.60;;;;;;5100397;28;20162;-79
2021/04/05 05:49:14;;;;;;;5.93;3.15;;;6.70;70.00;;;;;;5097268;28;20481;-78
2021/04/05 05:52:04;;;;;;;6.05;2.92;;;6.70;69.50;;;;;;5097106;28;20044;-78
2021/04/05 05:54:53;;;;;;;7.15;3.28;;;6.80;69.10;;;;;;5096536;28;20083;-77
2021/04/05 05:57:29;;;;;;;7.68;3.30;;;6.90;69.20;;;;;;5097029;28;20087;-76
2021/04/05 06:00:06;;;;;;;7.47;3.00;;;7.00;68.90;;;;;;5099247;28;20044;-77
2021/04/05 06:02:59;;;;;;;8.02;3.50;;;7.10;67.90;;;;;;5096474;28;20485;-79
2021/04/05 06:05:42;;;;;;;9.73;3.58;;;7.10;68.10;;;;;;5103156;28;20090;-78
2021/04/05 06:08:21;;;;;;;7.30;3.78;;;7.10;67.70;;;;;;5104239;28;20506;-78
2021/04/05 06:11:05;;;;;;;6.55;3.20;;;7.20;66.90;;;;;;5104316;28;20082;-79
2021/04/05 06:13:49;;;;;;;7.53;3.20;;;7.30;66.60;;;;;;5103806;28;20055;-78
2021/04/05 06:16:32;;;;;;;7.70;3.20;;;7.40;65.70;;;;;;5116531;28;20069;-78
2021/04/05 06:19:19;;;;;;;7.05;3.20;;;7.50;65.40;;;;;;5122164;28;20073;-77
2021/04/05 06:21:56;;;;;;;7.85;3.20;;;7.60;64.90;;;;;;5115959;28;20050;-77
2021/04/05 06:24:35;;;;;;;8.05;3.00;;;7.70;64.20;;;;;;5116004;28;20134;-78
2021/04/05 06:27:12;;;;;;;7.30;3.08;;;7.70;64.30;;;;;;5115874;28;20071;-78
2021/04/05 06:30:05;;;;;;;8.20;3.25;;;7.80;64.40;;;;;;5114108;28;20473;-78
2021/04/05 06:32:54;;;;;;;9.18;3.15;;;7.80;64.50;;;;;;5095568;28;20131;-75
2021/04/05 06:35:59;;;;;;;10.75;3.13;;;8.00;63.90;;;;;;5082208;28;20047;-79
2021/04/05 06:38:34;;;;;;;6.88;2.70;;;8.00;63.30;;;;;;5116160;28;20055;-77
2021/04/05 06:41:17;;;;;;;10.38;3.03;;;8.10;63.20;;;;;;5116344;28;20056;-78
2021/04/05 06:44:01;;;;;;;9.27;3.40;;;8.20;63.00;;;;;;5114549;28;20043;-77
2021/04/05 06:46:37;;;;;;;;;;;8.20;63.00;;;;;;5102354;28;20044;-77
2021/04/05 06:49:35;;;;;;;7.93;2.80;;;8.30;62.90;;;;;;5097995;28;19932;-78
2021/04/05 06:52:31;;;;;;;6.80;2.90;;;8.30;63.00;;;;;;5113568;28;20493;-77
2021/04/05 06:55:20;;;;;;;7.50;3.10;;;8.30;63.10;;;;;;5106137;28;20534;-79
2021/04/05 06:58:18;;;;;;;8.20;2.97;;;8.30;63.20;;;;;;5111098;28;20075;-77
2021/04/05 07:01:22;;;;;;;11.82;3.13;;;8.40;62.70;;;;;;5079648;28;20048;-78
2021/04/05 07:04:23;;;;;;;7.32;3.13;;;8.50;62.80;;;;;;5079500;28;20391;-79
2021/04/05 07:07:03;;;;;;;7.72;2.65;;;8.50;62.60;;;;;;5087835;28;20089;-79
2021/04/05 07:09:47;;;;;;;6.90;2.90;;;8.70;62.10;;;;;;5115711;28;20069;-76
2021/04/05 07:12:57;;;;;;;6.57;3.00;;;8.80;61.70;;;;;;5111406;28;20048;-78
2021/04/05 07:15:47;;;;;;;5.75;2.38;;;8.90;61.80;;;;;;5092501;28;20519;-79
2021/04/05 07:18:35;;;;;;;6.70;2.88;;;9.00;61.50;;;;;;5093068;28;20397;-78
2021/04/05 07:21:29;;;;;;;6.97;2.97;;;9.00;61.10;;;;;;5079972;28;20036;-77
2021/04/05 07:24:18;;;;;;;;;;;9.10;61.10;;;;;;5095260;28;20464;-77
2021/04/05 07:26:58;;;;;;;8.20;3.28;;;9.30;60.90;;;;;;5106038;28;19927;-81
2021/04/05 07:29:39;;;;;;;7.38;3.45;;;9.30;62.70;;;;;;5108073;28;20051;-79
2021/04/05 07:32:17;;;;;;;7.85;3.17;;;9.40;62.60;;;;;;5113362;28;20047;-78
2021/04/05 07:34:59;;;;;;;8.60;3.38;;;9.30;63.10;;;;;;5104837;28;20079;-79
2021/04/05 07:37:39;;;;;;;7.63;3.15;;;9.30;62.60;;;;;;5101254;28;20139;-79
2021/04/05 07:40:23;;;;;;;6.68;3.30;;;9.20;62.60;;;;;;5104666;28;20170;-77
2021/04/05 07:43:00;;;;;;;6.22;2.95;;;9.30;63.50;;;;;;5106551;28;20066;-78
2021/04/05 07:45:42;;;;;;;7.60;3.20;;;9.30;61.90;;;;;;5096734;28;20149;-77
2021/04/05 07:48:20;;;;;;;8.15;3.47;;;9.40;62.10;;;;;;5104421;28;20074;-76
2021/04/05 07:50:54;;;;;;;7.30;3.60;;;9.50;60.80;;;;;;5105016;28;20108;-77
2021/04/05 07:53:26;;;;;;;6.68;2.80;;;9.60;60.50;;;;;;5109935;28;20040;-79
2021/04/05 07:55:55;;;;;;;7.45;3.15;;;9.70;59.70;;;;;;5117278;28;20040;-75
2021/04/05 07:58:30;;;;;;;7.20;3.03;;;9.90;59.20;;;;;;5117568;28;20049;-78
2021/04/05 08:01:05;;;;;;;7.90;3.60;;;10.00;58.90;;;;;;5126623;28;20035;-77
2021/04/05 08:03:49;;;;;;;8.27;3.40;;;10.20;57.80;;;;;;5115423;28;20055;-77
2021/04/05 08:06:17;;;;;;;8.02;2.90;;;10.20;56.80;;;;;;5114814;28;20112;-79
2021/04/05 08:08:58;;;;;;;7.57;3.33;;;10.40;57.30;;;;;;5118636;28;20497;-77
2021/04/05 08:12:15;;;;;;;8.35;3.42;;;10.60;56.00;;;;;;5122017;28;20405;-79
2021/04/05 08:15:03;;;;;;;10.55;3.75;;;10.60;56.10;;;;;;5123641;28;20485;-78
2021/04/05 08:17:48;;;;;;;10.85;3.92;;;10.70;55.50;;;;;;5105495;28;20086;-78
2021/04/05 08:20:24;;;;;;;8.75;3.42;;;10.80;55.60;;;;;;5121215;28;20590;-80
2021/04/05 08:22:59;;;;;;;10.50;3.15;;;10.90;54.70;;;;;;5121469;28;20393;-80
2021/04/05 08:25:41;;;;;;;9.63;3.60;;;10.90;55.50;;;;;;5118847;28;20072;-78
2021/04/05 08:28:18;;;;;;;9.88;3.45;;;11.00;55.50;;;;;;5120544;28;20055;-78
2021/04/05 08:30:52;;;;;;;8.75;3.97;;;11.20;55.40;;;;;;5118838;28;20047;-78
2021/04/05 08:33:34;;;;;;;9.30;3.78;;;11.30;54.40;;;;;;5110467;28;20138;-79
2021/04/05 08:36:16;;;;;;;8.95;3.38;;;11.40;53.80;;;;;;5125475;28;20070;-79
2021/04/05 08:38:52;;;;;;;8.70;3.35;;;11.40;53.70;;;;;;5124342;28;20447;-79
2021/04/05 08:41:38;;;;;;;7.35;3.17;;;11.50;54.60;;;;;;5124839;28;20428;-81
2021/04/05 08:44:17;;;;;;;9.30;3.35;;;11.60;54.90;;;;;;5101517;28;20079;-78
2021/04/05 08:46:48;;;;;;;12.35;3.75;;;11.60;54.70;;;;;;5114662;28;20078;-80
2021/04/05 08:49:21;;;;;;;9.77;3.42;;;11.70;53.60;;;;;;5122523;28;20079;-78
2021/04/05 08:51:54;;;;;;;9.85;3.50;;;11.70;53.80;;;;;;5097196;28;20536;-77
2021/04/05 08:54:24;;;;;;;7.97;3.10;;;11.80;53.70;;;;;;5113898;28;20126;-76
2021/04/05 08:56:58;;;;;;;7.80;3.28;;;11.90;54.00;;;;;;5103286;28;20083;-76
2021/04/05 08:59:31;;;;;;;8.98;3.60;;;11.90;54.00;;;;;;5093939;28;20497;-76
2021/04/05 09:02:04;;;;;;;9.40;3.63;;;12.10;53.20;;;;;;5100069;28;20044;-77
2021/04/05 09:04:33;;;;;;;7.50;3.47;;;12.10;52.90;;;;;;5114331;28;20710;-77
2021/04/05 09:07:15;;;;;;;10.55;3.38;;;12.10;53.00;;;;;;5107184;28;20076;-80
2021/04/05 09:09:47;;;;;;;8.35;3.22;;;12.20;52.50;;;;;;5110696;28;20044;-78
2021/04/05 09:12:14;;;;;;;9.63;3.50;;;12.20;53.20;;;;;;5110239;28;20047;-82
2021/04/05 09:15:05;;;;;;;8.90;3.45;;;12.20;52.10;;;;;;5076599;28;20064;-80
2021/04/05 09:17:54;;;;;;;7.50;3.28;;;12.10;52.10;;;;;;5081545;28;20066;-80
2021/04/05 09:20:57;;;;;;;7.43;2.90;;;12.10;52.50;;;;;;5109994;28;20101;-79
2021/04/05 09:24:25;;;;;;;7.80;3.30;;;12.10;52.90;;;;;;5106675;28;20078;-79
2021/04/05 09:27:31;;;;;;;8.68;2.95;;;12.20;52.90;;;;;;5011824;28;20089;-79
2021/04/05 09:30:28;;;;;;;7.10;3.15;;;12.20;52.50;;;;;;5071529;28;20048;-78
2021/04/05 09:33:34;;;;;;;8.52;3.20;;;12.30;52.20;;;;;;5088890;28;20068;-81
2021/04/05 09:36:16;;;;;;;9.38;2.83;;;12.50;51.40;;;;;;5099943;28;20048;-79
2021/04/05 09:39:21;;;;;;;6.25;2.78;;;12.50;51.80;;;;;;5095707;28;20158;-78
2021/04/05 09:42:17;;;;;;;8.85;4.22;;;12.60;51.50;;;;;;5071522;28;20691;-77
2021/04/05 09:45:14;;;;;;;8.15;3.03;;;12.60;50.30;;;;;;5094253;28;20134;-77
2021/04/05 09:48:26;;;;;;;10.60;3.83;;;12.50;49.90;;;;;;5094441;28;20050;-78
2021/04/05 09:51:36;;;;;;;8.10;3.00;;;12.40;49.60;;;;;;5096451;28;20135;-78
2021/04/05 09:54:26;;;;;;;6.63;2.65;;;12.20;49.20;;;;;;5082648;28;20086;-77
2021/04/05 09:56:58;;;;;;;7.50;3.10;;;12.00;50.10;;;;;;5092280;28;20549;-78
2021/04/05 09:59:38;;;;;;;7.78;2.90;;;11.80;50.80;;;;;;5115861;28;20050;-78
2021/04/05 10:02:09;;;;;;;8.95;3.25;;;11.80;51.90;;;;;;5098517;28;20160;-79
2021/04/05 10:04:39;;;;;;;10.02;3.03;;;11.80;51.50;;;;;;5106066;28;20056;-79
2021/04/05 10:07:08;;;;;;;7.75;3.40;;;11.80;51.80;;;;;;5112779;28;20048;-79
2021/04/05 10:09:36;;;;;;;8.55;3.03;;;11.80;52.30;;;;;;5102070;28;20122;-78
2021/04/05 10:12:08;;;;;;;7.60;3.05;;;11.90;52.60;;;;;;5102039;28;20101;-79
2021/04/05 10:14:40;;;;;;;9.63;3.17;;;12.00;52.30;;;;;;5121464;28;20371;-77
2021/04/05 10:17:08;;;;;;;9.38;3.63;;;12.00;52.20;;;;;;5110189;28;20048;-78
2021/04/05 10:19:38;;;;;;;9.93;3.75;;;12.10;51.90;;;;;;5097585;28;20067;-78
2021/04/05 10:22:09;;;;;;;8.50;3.28;;;12.20;52.30;;;;;;5112468;28;20044;-77
2021/04/05 10:24:43;;;;;;;7.43;3.17;;;12.10;52.80;;;;;;5096840;28;20129;-78
2021/04/05 10:27:14;;;;;;;13.43;3.72;;;12.10;52.50;;;;;;5097930;28;20080;-79
2021/04/05 10:29:44;;;;;;;8.85;3.25;;;12.20;52.60;;;;;;5105429;28;20468;-77
2021/04/05 10:32:16;;;;;;;7.40;3.40;;;12.20;52.50;;;;;;5099028;28;20323;-79
2021/04/05 10:34:46;;;;;;;9.57;3.13;;;12.10;53.10;;;;;;5106752;28;20080;-75
2021/04/05 10:37:18;;;;;;;8.25;3.70;;;12.20;52.00;;;;;;5103687;28;20075;-78
2021/04/05 10:39:50;;;;;;;7.15;2.80;;;12.20;53.20;;;;;;5105705;28;20085;-79
2021/04/05 10:42:23;;;;;;;8.82;3.65;;;12.20;53.40;;;;;;5103507;28;20083;-76
2021/04/05 10:44:56;;;;;;;10.95;3.70;;;12.10;53.20;;;;;;5104826;28;20048;-79
2021/04/05 10:47:27;;;;;;;9.38;3.63;;;12.00;53.40;;;;;;5108486;28;20048;-78
2021/04/05 10:49:56;;;;;;;8.65;3.72;;;12.00;54.00;;;;;;5107016;28;20040;-78
2021/04/05 10:52:29;;;;;;;8.45;3.85;;;12.10;54.20;;;;;;5102965;28;20071;-76
2021/04/05 10:54:56;;;;;;;9.93;3.90;;;12.10;54.10;;;;;;5098333;28;20472;-77
2021/04/05 10:57:31;;;;;;;11.13;4.00;;;12.20;54.00;;;;;;5110568;28;20076;-78
2021/04/05 11:00:01;;;;;;;10.52;3.95;;;12.20;54.20;;;;;;5098396;28;20040;-79
2021/04/05 11:02:34;;;;;;;8.68;4.15;;;12.20;53.50;;;;;;5097390;28;20052;-78
2021/04/05 11:05:06;;;;;;;8.75;4.40;;;12.10;53.90;;;;;;5103372;28;20079;-78
2021/04/05 11:07:35;;;;;;;9.60;4.30;;;12.00;54.20;;;;;;5108738;28;20062;-80
2021/04/05 11:10:06;;;;;;;10.35;4.50;;;11.90;55.10;;;;;;5097315;28;20520;-78
2021/04/05 11:12:36;;;;;;;12.38;4.10;;;12.00;55.30;;;;;;5105709;28;20135;-78
2021/04/05 11:15:08;;;;;;;11.50;4.25;;;12.00;53.90;;;;;;5096384;28;20086;-79
2021/04/05 11:17:40;;;;;;;9.85;3.75;;;12.00;54.20;;;;;;5100593;28;20071;-76
2021/04/05 11:20:10;;;;;;;7.25;3.63;;;12.00;54.60;;;;;;5103582;28;20076;-76
2021/04/05 11:22:40;;;;;;;12.45;4.07;;;12.10;54.00;;;;;;5107837;28;20550;-78
2021/04/05 11:25:14;;;;;;;13.57;4.65;;;12.10;53.60;;;;;;5097818;28;20052;-78
2021/04/05 11:27:47;;;;;;;10.45;3.97;;;12.10;53.60;;;;;;5101121;28;20393;-76
2021/04/05 11:30:23;;;;;;;13.25;4.13;;;12.00;54.10;;;;;;5103663;28;20123;-76
2021/04/05 11:32:51;;;;;;;14.95;4.50;;;12.10;52.70;;;;;;5101357;28;20092;-76
2021/04/05 11:35:22;;;;;;;9.98;3.85;;;12.00;52.80;;;;;;5109380;28;20472;-76
2021/04/05 11:37:51;;;;;;;8.80;3.53;;;12.00;53.20;;;;;;5097323;28;20143;-78
2021/04/05 11:40:27;;;;;;;9.55;3.53;;;12.00;53.60;;;;;;5097987;28;20154;-77
2021/04/05 11:42:54;;;;;;;7.65;3.28;;;12.10;52.30;;;;;;5105501;28;20067;-77
2021/04/05 11:45:30;;;;;;;10.65;3.63;;;12.10;52.30;;;;;;5105644;28;20101;-76
2021/04/05 11:47:59;;;;;;;7.40;3.72;;;12.10;51.70;;;;;;5105737;28;20044;-81
2021/04/05 11:50:28;;;;;;;7.95;3.30;;;12.10;51.30;;;;;;5106210;28;20537;-81
2021/04/05 11:53:03;;;;;;;10.32;3.60;;;12.10;52.00;;;;;;5104661;28;20048;-81
2021/04/05 11:55:33;;;;;;;9.23;3.72;;;12.20;51.90;;;;;;5096495;28;20128;-78
2021/04/05 11:58:06;;;;;;;33.85;15.27;;;12.30;51.40;;;;;;5100126;28;20072;-83
2021/04/05 12:00:39;;;;;;;9.05;4.00;;;12.40;50.90;;;;;;5107226;28;20047;-82
2021/04/05 12:03:22;;;;;;;9.45;3.60;;;12.40;51.40;;;;;;5098314;28;20056;-81
2021/04/05 12:05:58;;;;;;;8.07;3.40;;;12.40;51.70;;;;;;5099011;28;20167;-80
2021/04/05 12:08:33;;;;;;;9.70;3.45;;;12.60;50.40;;;;;;5060121;28;20048;-81
2021/04/05 12:11:04;;;;;;;;;;;12.60;50.90;;;;;;5090825;28;20079;-80
2021/04/05 12:13:38;;;;;;;8.77;3.30;;;12.70;49.50;;;;;;5096335;28;19919;-80
2021/04/05 12:16:06;;;;;;;8.63;3.30;;;12.70;49.20;;;;;;5104332;28;20052;-81
2021/04/05 12:18:34;;;;;;;9.10;2.85;;;12.80;49.00;;;;;;5103451;28;20138;-81
2021/04/05 12:21:05;;;;;;;8.05;2.60;;;12.90;47.50;;;;;;5101127;28;20071;-82
2021/04/05 12:23:33;;;;;;;6.57;2.40;;;12.90;46.50;;;;;;5096628;28;20142;-81
2021/04/05 12:26:01;;;;;;;6.00;2.40;;;12.90;46.60;;;;;;5092518;28;20135;-80
2021/04/05 12:28:37;;;;;;;11.25;2.75;;;12.90;44.90;;;;;;5110377;28;20134;-81
2021/04/05 12:31:06;;;;;;;10.40;3.05;;;12.90;45.70;;;;;;5110022;28;20082;-83
2021/04/05 12:33:35;;;;;;;6.32;2.60;;;13.00;45.60;;;;;;5099034;28;20053;-82
2021/04/05 12:36:03;;;;;;;8.15;2.50;;;13.00;45.40;;;;;;5100613;28;20086;-82
2021/04/05 12:38:36;;;;;;;7.57;2.78;;;12.90;45.80;;;;;;5102251;28;20139;-76
2021/04/05 12:41:04;;;;;;;10.15;4.55;;;12.90;46.00;;;;;;5099117;28;20043;-77
2021/04/05 12:43:35;;;;;;;7.97;3.30;;;12.90;45.80;;;;;;5099373;28;20071;-78
2021/04/05 12:46:05;;;;;;;8.38;3.35;;;12.80;46.10;;;;;;5099747;28;20043;-78
2021/04/05 12:48:35;;;;;;;8.20;3.22;;;12.70;46.70;;;;;;5109869;28;20127;-79
2021/04/05 12:51:07;;;;;;;9.27;3.30;;;12.70;46.20;;;;;;5090541;28;20537;-78
2021/04/05 12:53:37;;;;;;;7.97;3.55;;;12.70;46.80;;;;;;5089510;28;20044;-78
2021/04/05 12:56:07;;;;;;;8.95;4.05;;;12.70;47.90;;;;;;5088942;28;20131;-76
2021/04/05 12:58:36;;;;;;;10.82;4.18;;;12.70;47.40;;;;;;5098299;28;20122;-78
2021/04/05 13:01:04;;;;;;;9.15;4.03;;;12.70;47.20;;;;;;5094634;28;20056;-77
2021/04/05 13:03:35;;;;;;;8.10;3.90;;;12.60;47.00;;;;;;5091789;28;20048;-78
2021/04/05 13:06:06;;;;;;;10.45;4.05;;;12.50;48.00;;;;;;5098572;28;20083;-77
2021/04/05 13:08:44;;;;;;;10.13;4.10;;;12.50;49.40;;;;;;5090426;28;20083;-76
2021/04/05 13:11:20;;;;;;;10.93;4.82;;;12.50;48.50;;;;;;5105923;28;20047;-75
2021/04/05 13:13:52;;;;;;;9.18;4.38;;;12.40;48.80;;;;;;5094529;28;20083;-78
2021/04/05 13:16:26;;;;;;;10.65;4.85;;;12.30;49.10;;;;;;5102493;28;20547;-75
2021/04/05 13:18:57;;;;;;;13.55;5.20;;;12.30;48.80;;;;;;5092262;28;20127;-78
2021/04/05 13:21:26;;;;;;;12.23;4.75;;;12.20;49.80;;;;;;5094651;28;20093;-76
2021/04/05 13:23:56;;;;;;;10.60;4.93;;;12.20;50.80;;;;;;5100542;28;20152;-78
2021/04/05 13:26:33;;;;;;;12.50;4.65;;;12.10;49.90;;;;;;5106687;28;20040;-77
2021/04/05 13:29:02;;;;;;;12.65;5.25;;;12.10;49.90;;;;;;5102520;28;20072;-77